createdAt,value
2018-03-06T00:00:26.381Z,0.00
2018-03-06T00:01:26.185Z,0.00
2018-03-06T00:02:26.304Z,0.00
2018-03-06T00:03:26.102Z,0.00
2018-03-06T00:04:26.122Z,0.00
2018-03-06T00:05:26.078Z,0.00
2018-03-06T00:06:26.089Z,0.00
2018-03-06T00:07:25.967Z,0.00
2018-03-06T00:08:26.096Z,0.00
2018-03-06T00:09:25.929Z,0.00
2018-03-06T00:10:25.934Z,0.00
2018-03-06T00:11:25.845Z,0.00
2018-03-06T00:12:25.866Z,0.00
2018-03-06T00:13:25.872Z,0.00
2018-03-06T00:14:25.955Z,0.00
2018-03-06T00:15:25.775Z,0.00
2018-03-06T00:16:25.783Z,0.00
2018-03-06T00:17:25.697Z,0.00
2018-03-06T00:18:25.683Z,0.00
2018-03-06T00:19:25.690Z,0.00
2018-03-06T00:20:25.665Z,0.00
2018-03-06T00:21:25.589Z,0.00
2018-03-06T00:22:25.606Z,0.00
2018-03-06T00:23:25.514Z,0.00
2018-03-06T00:24:25.482Z,0.00
2018-03-06T00:25:25.418Z,0.00
2018-03-06T00:26:25.486Z,0.00
2018-03-06T00:27:25.643Z,0.00
2018-03-06T00:28:25.407Z,0.00
2018-03-06T00:29:25.354Z,0.00
2018-03-06T00:30:25.876Z,0.00
2018-03-06T00:31:25.282Z,0.00
2018-03-06T00:32:25.273Z,0.00
2018-03-06T00:33:25.259Z,0.00
2018-03-06T00:34:25.205Z,0.00
2018-03-06T00:35:25.209Z,0.00
2018-03-06T00:36:25.167Z,0.00
2018-03-06T00:37:25.089Z,0.00
2018-03-06T00:38:25.096Z,0.00
2018-03-06T00:39:25.014Z,0.00
2018-03-06T00:40:25.025Z,0.00
2018-03-06T00:41:25.121Z,0.00
2018-03-06T00:42:25.039Z,0.00
2018-03-06T00:43:24.918Z,0.00
2018-03-06T00:44:26.499Z,0.00
2018-03-06T00:45:26.398Z,0.00
2018-03-06T00:46:24.890Z,0.00
2018-03-06T00:47:24.873Z,0.00
2018-03-06T00:48:24.790Z,0.00
2018-03-06T00:49:24.772Z,0.00
2018-03-06T00:50:24.721Z,0.00
2018-03-06T00:51:24.730Z,0.00
2018-03-06T00:52:24.683Z,0.00
2018-03-06T00:53:24.668Z,0.00
2018-03-06T00:54:24.610Z,0.00
2018-03-06T00:55:24.566Z,0.00
2018-03-06T00:56:24.551Z,0.00
2018-03-06T00:57:24.448Z,0.00
2018-03-06T00:58:24.480Z,0.00
2018-03-06T00:59:24.488Z,0.00
2018-03-06T01:00:24.385Z,0.00
2018-03-06T01:01:24.374Z,0.00
2018-03-06T01:02:24.346Z,0.00
2018-03-06T01:03:24.254Z,0.00
2018-03-06T01:04:24.322Z,0.00
2018-03-06T01:05:24.245Z,0.00
2018-03-06T01:06:24.164Z,0.00
2018-03-06T01:07:24.183Z,0.00
2018-03-06T01:08:24.208Z,0.00
2018-03-06T01:09:24.109Z,0.00
2018-03-06T01:10:24.186Z,0.00
2018-03-06T01:11:24.079Z,0.00
2018-03-06T01:12:24.072Z,0.00
2018-03-06T01:13:24.021Z,0.00
2018-03-06T01:14:23.906Z,0.00
2018-03-06T01:15:24.024Z,0.00
2018-03-06T01:16:23.935Z,0.00
2018-03-06T01:17:23.898Z,0.00
2018-03-06T01:18:23.864Z,0.00
2018-03-06T01:19:23.774Z,0.00
2018-03-06T01:20:23.774Z,0.00
2018-03-06T01:21:23.766Z,0.00
2018-03-06T01:22:23.732Z,0.00
2018-03-06T01:23:23.652Z,0.00
2018-03-06T01:24:23.671Z,0.00
2018-03-06T01:25:23.708Z,0.00
2018-03-06T01:26:23.706Z,0.00
2018-03-06T01:27:23.515Z,0.00
2018-03-06T01:28:23.536Z,0.00
2018-03-06T01:29:23.419Z,0.00
2018-03-06T01:30:23.444Z,0.00
2018-03-06T01:31:23.418Z,0.00
2018-03-06T01:32:23.388Z,0.00
2018-03-06T01:33:23.359Z,0.00
2018-03-06T01:34:23.312Z,0.00
2018-03-06T01:35:23.279Z,0.00
2018-03-06T01:36:23.250Z,0.00
2018-03-06T01:37:23.165Z,0.00
2018-03-06T01:38:23.144Z,0.00
2018-03-06T01:39:23.138Z,0.00
2018-03-06T01:40:23.076Z,0.00
2018-03-06T01:41:23.159Z,0.00
2018-03-06T01:42:23.054Z,0.00
2018-03-06T01:43:24.918Z,0.00
2018-03-06T01:44:22.993Z,0.00
2018-03-06T01:45:22.964Z,0.00
2018-03-06T01:46:22.922Z,0.00
2018-03-06T01:47:22.925Z,0.00
2018-03-06T01:48:22.882Z,0.00
2018-03-06T01:49:22.828Z,0.00
2018-03-06T01:50:22.831Z,0.00
2018-03-06T01:51:24.396Z,0.00
2018-03-06T01:52:22.720Z,0.00
2018-03-06T01:53:22.754Z,0.00
2018-03-06T01:54:22.727Z,0.00
2018-03-06T01:55:22.657Z,0.00
2018-03-06T01:56:22.601Z,0.00
2018-03-06T01:57:22.594Z,0.00
2018-03-06T01:58:22.566Z,0.00
2018-03-06T01:59:22.538Z,0.00
2018-03-06T02:00:22.476Z,0.00
2018-03-06T02:01:22.473Z,0.00
2018-03-06T02:02:22.410Z,0.00
2018-03-06T02:03:22.452Z,0.00
2018-03-06T02:04:22.328Z,0.00
2018-03-06T02:05:22.437Z,0.00
2018-03-06T02:06:22.349Z,0.00
2018-03-06T02:07:22.262Z,0.00
2018-03-06T02:08:23.944Z,0.00
2018-03-06T02:09:22.167Z,0.00
2018-03-06T02:10:22.143Z,0.00
2018-03-06T02:11:22.126Z,0.00
2018-03-06T02:12:22.064Z,0.00
2018-03-06T02:13:22.081Z,0.00
2018-03-06T02:14:22.006Z,0.00
2018-03-06T02:15:21.975Z,0.00
2018-03-06T02:16:21.947Z,0.00
2018-03-06T02:17:21.911Z,0.00
2018-03-06T02:18:21.881Z,0.00
2018-03-06T02:19:21.850Z,0.00
2018-03-06T02:20:21.816Z,0.00
2018-03-06T02:21:21.782Z,0.00
2018-03-06T02:22:21.760Z,0.00
2018-03-06T02:23:24.437Z,0.00
2018-03-06T02:24:21.702Z,0.00
2018-03-06T02:25:21.657Z,0.00
2018-03-06T02:26:21.675Z,0.00
2018-03-06T02:27:21.588Z,0.00
2018-03-06T02:28:21.569Z,0.00
2018-03-06T02:29:21.540Z,0.00
2018-03-06T02:30:21.589Z,0.00
2018-03-06T02:31:21.528Z,0.00
2018-03-06T02:32:21.556Z,0.00
2018-03-06T02:33:21.499Z,0.00
2018-03-06T02:34:21.410Z,0.00
2018-03-06T02:35:21.408Z,0.00
2018-03-06T02:36:21.384Z,0.00
2018-03-06T02:37:21.316Z,0.00
2018-03-06T02:38:21.343Z,0.00
2018-03-06T02:39:21.296Z,0.00
2018-03-06T02:40:21.265Z,0.00
2018-03-06T02:41:21.239Z,0.00
2018-03-06T02:42:21.256Z,0.00
2018-03-06T02:43:21.155Z,0.00
2018-03-06T02:44:21.272Z,0.00
2018-03-06T02:45:21.147Z,0.00
2018-03-06T02:46:21.097Z,0.00
2018-03-06T02:47:21.114Z,0.00
2018-03-06T02:48:21.011Z,0.00
2018-03-06T02:49:20.905Z,0.00
2018-03-06T02:50:22.458Z,0.00
2018-03-06T02:51:20.828Z,0.00
2018-03-06T02:52:20.804Z,0.00
2018-03-06T02:53:20.769Z,0.00
2018-03-06T02:54:20.733Z,0.00
2018-03-06T02:55:20.702Z,0.00
2018-03-06T02:56:20.672Z,0.00
2018-03-06T02:57:20.635Z,0.00
2018-03-06T02:58:20.610Z,0.00
2018-03-06T02:59:20.580Z,0.00
2018-03-06T03:00:20.549Z,0.00
2018-03-06T03:01:20.516Z,0.00
2018-03-06T03:02:20.488Z,0.00
2018-03-06T03:03:20.456Z,0.00
2018-03-06T03:04:20.423Z,0.00
2018-03-06T03:05:20.388Z,0.00
2018-03-06T03:06:20.362Z,0.00
2018-03-06T03:07:20.322Z,0.00
2018-03-06T03:08:20.294Z,0.00
2018-03-06T03:09:20.273Z,0.00
2018-03-06T03:10:20.235Z,0.00
2018-03-06T03:11:20.198Z,0.00
2018-03-06T03:12:20.164Z,0.00
2018-03-06T03:13:20.139Z,0.00
2018-03-06T03:14:20.136Z,0.00
2018-03-06T03:15:20.086Z,0.00
2018-03-06T03:16:20.057Z,0.00
2018-03-06T03:17:20.018Z,0.00
2018-03-06T03:18:19.987Z,0.00
2018-03-06T03:19:19.952Z,0.00
2018-03-06T03:20:19.918Z,0.00
2018-03-06T03:21:19.887Z,0.00
2018-03-06T03:22:19.855Z,0.00
2018-03-06T03:23:19.833Z,0.00
2018-03-06T03:24:19.791Z,0.00
2018-03-06T03:25:19.758Z,0.00
2018-03-06T03:26:19.836Z,0.00
2018-03-06T03:27:19.814Z,0.00
2018-03-06T03:28:19.744Z,0.00
2018-03-06T03:29:19.670Z,0.00
2018-03-06T03:30:19.683Z,0.00
2018-03-06T03:31:19.578Z,0.00
2018-03-06T03:32:19.546Z,0.00
2018-03-06T03:33:19.515Z,0.00
2018-03-06T03:34:19.490Z,0.00
2018-03-06T03:35:19.453Z,0.00
2018-03-06T03:36:19.428Z,0.00
2018-03-06T03:37:19.387Z,0.00
2018-03-06T03:38:19.351Z,0.00
2018-03-06T03:39:19.325Z,0.00
2018-03-06T03:40:19.355Z,0.00
2018-03-06T03:41:19.264Z,0.00
2018-03-06T03:42:19.276Z,0.00
2018-03-06T03:43:19.200Z,0.00
2018-03-06T03:44:19.167Z,0.00
2018-03-06T03:45:20.877Z,0.00
2018-03-06T03:46:19.111Z,0.00
2018-03-06T03:47:19.076Z,0.00
2018-03-06T03:48:19.048Z,0.00
2018-03-06T03:49:19.014Z,0.00
2018-03-06T03:50:18.979Z,0.00
2018-03-06T03:51:18.953Z,0.00
2018-03-06T03:52:18.921Z,0.00
2018-03-06T03:53:18.892Z,0.00
2018-03-06T03:54:18.866Z,0.00
2018-03-06T03:55:18.825Z,0.00
2018-03-06T03:56:18.803Z,0.00
2018-03-06T03:57:18.765Z,0.00
2018-03-06T03:58:18.737Z,0.00
2018-03-06T03:59:18.705Z,0.00
2018-03-06T04:00:18.677Z,0.00
2018-03-06T04:01:18.644Z,0.00
2018-03-06T04:02:18.608Z,0.00
2018-03-06T04:03:18.579Z,0.00
2018-03-06T04:04:18.561Z,0.00
2018-03-06T04:05:18.516Z,0.00
2018-03-06T04:06:18.485Z,0.00
2018-03-06T04:07:18.453Z,0.00
2018-03-06T04:08:18.431Z,0.00
2018-03-06T04:09:18.389Z,0.00
2018-03-06T04:10:18.391Z,0.00
2018-03-06T04:11:18.339Z,0.00
2018-03-06T04:12:18.300Z,0.00
2018-03-06T04:13:18.270Z,0.00
2018-03-06T04:14:18.242Z,0.00
2018-03-06T04:15:18.210Z,0.00
2018-03-06T04:16:18.178Z,0.00
2018-03-06T04:17:18.179Z,0.00
2018-03-06T04:18:18.118Z,0.00
2018-03-06T04:19:18.081Z,0.00
2018-03-06T04:20:18.050Z,0.00
2018-03-06T04:21:18.035Z,0.00
2018-03-06T04:22:17.990Z,0.00
2018-03-06T04:23:17.958Z,0.00
2018-03-06T04:24:17.961Z,0.00
2018-03-06T04:25:17.898Z,0.00
2018-03-06T04:26:17.877Z,0.00
2018-03-06T04:27:17.837Z,0.00
2018-03-06T04:28:17.805Z,0.00
2018-03-06T04:29:17.778Z,0.00
2018-03-06T04:30:17.749Z,0.00
2018-03-06T04:31:17.712Z,0.00
2018-03-06T04:32:17.685Z,0.00
2018-03-06T04:33:17.653Z,0.00
2018-03-06T04:34:17.619Z,0.00
2018-03-06T04:35:17.587Z,0.00
2018-03-06T04:36:17.556Z,0.00
2018-03-06T04:37:17.524Z,0.00
2018-03-06T04:38:17.516Z,0.00
2018-03-06T04:39:17.469Z,0.00
2018-03-06T04:40:17.483Z,0.00
2018-03-06T04:41:17.402Z,0.00
2018-03-06T04:42:17.379Z,0.00
2018-03-06T04:43:17.348Z,0.00
2018-03-06T04:44:17.317Z,0.00
2018-03-06T04:45:17.294Z,0.00
2018-03-06T04:46:17.322Z,0.00
2018-03-06T04:47:17.221Z,0.00
2018-03-06T04:48:17.192Z,0.00
2018-03-06T04:49:17.163Z,0.00
2018-03-06T04:50:17.128Z,0.00
2018-03-06T04:51:17.092Z,0.00
2018-03-06T04:52:17.067Z,0.00
2018-03-06T04:53:17.033Z,0.00
2018-03-06T04:54:17.010Z,0.00
2018-03-06T04:55:16.976Z,0.00
2018-03-06T04:56:16.947Z,0.00
2018-03-06T04:57:16.921Z,0.00
2018-03-06T04:58:16.957Z,0.00
2018-03-06T04:59:16.852Z,0.00
2018-03-06T05:00:16.820Z,0.00
2018-03-06T05:01:16.791Z,0.00
2018-03-06T05:02:16.766Z,0.00
2018-03-06T05:03:16.729Z,0.00
2018-03-06T05:04:16.700Z,0.00
2018-03-06T05:05:16.671Z,0.00
2018-03-06T05:06:16.642Z,0.00
2018-03-06T05:07:16.619Z,0.00
2018-03-06T05:08:16.582Z,0.00
2018-03-06T05:09:16.551Z,0.00
2018-03-06T05:10:16.524Z,0.00
2018-03-06T05:11:16.499Z,0.00
2018-03-06T05:12:16.491Z,0.00
2018-03-06T05:13:16.442Z,0.00
2018-03-06T05:14:16.404Z,0.00
2018-03-06T05:15:16.372Z,0.00
2018-03-06T05:16:16.344Z,0.00
2018-03-06T05:17:16.369Z,0.00
2018-03-06T05:18:16.276Z,0.00
2018-03-06T05:19:16.253Z,0.00
2018-03-06T05:20:16.221Z,0.00
2018-03-06T05:21:16.190Z,0.00
2018-03-06T05:22:16.165Z,0.00
2018-03-06T05:23:16.136Z,0.00
2018-03-06T05:24:16.110Z,0.00
2018-03-06T05:25:16.071Z,0.00
2018-03-06T05:26:16.045Z,0.00
2018-03-06T05:27:16.012Z,0.00
2018-03-06T05:28:15.988Z,0.00
2018-03-06T05:29:15.954Z,0.00
2018-03-06T05:30:15.975Z,0.00
2018-03-06T05:31:15.966Z,0.00
2018-03-06T05:32:15.953Z,0.00
2018-03-06T05:33:15.899Z,0.00
2018-03-06T05:34:15.797Z,0.00
2018-03-06T05:35:15.815Z,0.00
2018-03-06T05:36:15.743Z,0.00
2018-03-06T05:37:15.707Z,0.00
2018-03-06T05:38:15.681Z,0.00
2018-03-06T05:39:15.653Z,0.00
2018-03-06T05:40:15.624Z,0.00
2018-03-06T05:41:15.635Z,0.00
2018-03-06T05:42:15.570Z,0.00
2018-03-06T05:43:15.545Z,0.00
2018-03-06T05:44:15.509Z,0.00
2018-03-06T05:45:15.473Z,0.00
2018-03-06T05:46:15.436Z,0.00
2018-03-06T05:47:15.426Z,0.00
2018-03-06T05:48:15.376Z,0.00
2018-03-06T05:49:15.347Z,0.00
2018-03-06T05:50:15.322Z,0.00
2018-03-06T05:51:15.288Z,0.00
2018-03-06T05:52:15.260Z,0.00
2018-03-06T05:53:15.226Z,0.00
2018-03-06T05:54:15.206Z,0.00
2018-03-06T05:55:15.194Z,0.00
2018-03-06T05:56:15.147Z,0.00
2018-03-06T05:57:15.122Z,0.00
2018-03-06T05:58:15.084Z,0.00
2018-03-06T05:59:15.054Z,0.00
2018-03-06T06:00:15.029Z,0.00
2018-03-06T06:01:14.991Z,0.00
2018-03-06T06:02:14.958Z,0.00
2018-03-06T06:03:14.941Z,0.00
2018-03-06T06:04:14.901Z,0.00
2018-03-06T06:05:14.872Z,0.00
2018-03-06T06:06:14.843Z,0.00
2018-03-06T06:07:14.808Z,0.00
2018-03-06T06:08:14.785Z,5.63
2018-03-06T06:09:14.803Z,5.63
2018-03-06T06:10:14.723Z,5.63
2018-03-06T06:11:14.721Z,5.63
2018-03-06T06:12:14.665Z,5.63
2018-03-06T06:13:14.637Z,5.63
2018-03-06T06:14:14.641Z,5.63
2018-03-06T06:15:14.574Z,11.25
2018-03-06T06:16:14.544Z,11.25
2018-03-06T06:17:14.545Z,11.25
2018-03-06T06:18:14.482Z,11.25
2018-03-06T06:19:14.498Z,11.25
2018-03-06T06:20:14.453Z,11.25
2018-03-06T06:21:14.422Z,16.88
2018-03-06T06:22:14.368Z,16.88
2018-03-06T06:23:14.368Z,16.88
2018-03-06T06:24:14.305Z,16.88
2018-03-06T06:25:14.275Z,16.88
2018-03-06T06:26:14.262Z,22.50
2018-03-06T06:27:14.220Z,22.50
2018-03-06T06:28:14.187Z,22.50
2018-03-06T06:29:14.160Z,22.50
2018-03-06T06:30:14.158Z,28.13
2018-03-06T06:31:14.101Z,28.13
2018-03-06T06:32:14.091Z,28.13
2018-03-06T06:33:14.039Z,28.13
2018-03-06T06:34:14.005Z,28.13
2018-03-06T06:35:13.997Z,28.13
2018-03-06T06:36:13.951Z,28.13
2018-03-06T06:37:13.914Z,28.13
2018-03-06T06:38:13.905Z,33.75
2018-03-06T06:39:13.968Z,33.75
2018-03-06T06:40:13.852Z,39.38
2018-03-06T06:41:13.804Z,39.38
2018-03-06T06:42:13.785Z,39.38
2018-03-06T06:43:13.743Z,39.38
2018-03-06T06:44:13.776Z,39.38
2018-03-06T06:45:13.687Z,45.00
2018-03-06T06:46:13.716Z,45.00
2018-03-06T06:47:13.625Z,45.00
2018-03-06T06:48:13.593Z,50.63
2018-03-06T06:49:13.569Z,50.63
2018-03-06T06:50:13.565Z,56.25
2018-03-06T06:51:13.541Z,61.88
2018-03-06T06:52:13.477Z,67.50
2018-03-06T06:53:13.493Z,67.50
2018-03-06T06:54:13.494Z,67.50
2018-03-06T06:55:13.604Z,73.13
2018-03-06T06:56:13.675Z,84.38
2018-03-06T06:57:13.385Z,84.38
2018-03-06T06:58:13.372Z,90.00
2018-03-06T06:59:13.268Z,90.00
2018-03-06T07:00:13.244Z,90.00
2018-03-06T07:01:13.233Z,90.00
2018-03-06T07:02:13.181Z,90.00
2018-03-06T07:03:13.142Z,90.00
2018-03-06T07:04:15.968Z,90.00
2018-03-06T07:05:13.083Z,90.00
2018-03-06T07:06:13.084Z,95.63
2018-03-06T07:07:13.029Z,95.63
2018-03-06T07:08:13.009Z,95.63
2018-03-06T07:09:12.971Z,95.63
2018-03-06T07:10:14.464Z,95.63
2018-03-06T07:11:12.982Z,95.63
2018-03-06T07:12:13.025Z,95.63
2018-03-06T07:13:12.911Z,95.63
2018-03-06T07:14:14.651Z,90.00
2018-03-06T07:15:12.950Z,90.00
2018-03-06T07:16:12.762Z,84.38
2018-03-06T07:17:12.787Z,84.38
2018-03-06T07:18:12.701Z,90.00
2018-03-06T07:19:12.742Z,90.00
2018-03-06T07:20:12.644Z,95.63
2018-03-06T07:21:12.649Z,101.25
2018-03-06T07:22:12.589Z,106.88
2018-03-06T07:23:12.568Z,112.50
2018-03-06T07:24:12.573Z,118.13
2018-03-06T07:25:12.537Z,118.13
2018-03-06T07:26:12.498Z,123.75
2018-03-06T07:27:12.486Z,135.00
2018-03-06T07:28:12.412Z,140.63
2018-03-06T07:29:12.379Z,146.25
2018-03-06T07:30:12.349Z,146.25
2018-03-06T07:31:12.327Z,151.88
2018-03-06T07:32:12.289Z,157.50
2018-03-06T07:33:12.263Z,163.13
2018-03-06T07:34:12.247Z,168.75
2018-03-06T07:35:12.205Z,168.75
2018-03-06T07:36:12.174Z,174.38
2018-03-06T07:37:12.140Z,180.00
2018-03-06T07:38:12.117Z,185.63
2018-03-06T07:39:12.089Z,196.88
2018-03-06T07:40:12.058Z,191.25
2018-03-06T07:41:12.035Z,196.88
2018-03-06T07:42:12.003Z,202.50
2018-03-06T07:43:11.977Z,213.75
2018-03-06T07:44:11.944Z,208.13
2018-03-06T07:45:11.918Z,213.75
2018-03-06T07:46:11.884Z,213.75
2018-03-06T07:47:11.851Z,213.75
2018-03-06T07:48:11.822Z,213.75
2018-03-06T07:49:11.794Z,219.38
2018-03-06T07:50:11.762Z,219.38
2018-03-06T07:51:11.797Z,219.38
2018-03-06T07:52:11.707Z,219.38
2018-03-06T07:53:11.676Z,219.38
2018-03-06T07:54:11.654Z,225.00
2018-03-06T07:55:11.622Z,230.63
2018-03-06T07:56:11.596Z,236.25
2018-03-06T07:57:11.597Z,236.25
2018-03-06T07:58:11.537Z,236.25
2018-03-06T07:59:11.506Z,241.88
2018-03-06T08:00:11.482Z,241.88
2018-03-06T08:01:11.453Z,247.50
2018-03-06T08:02:11.416Z,253.13
2018-03-06T08:03:11.387Z,253.13
2018-03-06T08:04:11.375Z,253.13
2018-03-06T08:05:11.327Z,258.75
2018-03-06T08:06:11.303Z,264.38
2018-03-06T08:07:11.272Z,264.38
2018-03-06T08:08:11.248Z,264.38
2018-03-06T08:09:11.218Z,264.38
2018-03-06T08:10:11.183Z,264.38
2018-03-06T08:11:11.157Z,270.00
2018-03-06T08:12:11.176Z,270.00
2018-03-06T08:13:11.128Z,270.00
2018-03-06T08:14:11.077Z,270.00
2018-03-06T08:15:11.073Z,270.00
2018-03-06T08:16:11.015Z,275.63
2018-03-06T08:17:10.994Z,286.88
2018-03-06T08:18:10.985Z,281.25
2018-03-06T08:19:10.935Z,286.88
2018-03-06T08:20:10.905Z,286.88
2018-03-06T08:21:10.889Z,298.13
2018-03-06T08:22:10.843Z,298.13
2018-03-06T08:23:10.824Z,303.75
2018-03-06T08:24:10.809Z,303.75
2018-03-06T08:25:10.757Z,303.75
2018-03-06T08:26:10.723Z,303.75
2018-03-06T08:27:10.723Z,309.38
2018-03-06T08:28:10.666Z,309.38
2018-03-06T08:29:10.637Z,315.00
2018-03-06T08:30:10.630Z,320.63
2018-03-06T08:31:10.584Z,331.88
2018-03-06T08:32:10.553Z,326.25
2018-03-06T08:33:10.531Z,331.88
2018-03-06T08:34:10.501Z,331.88
2018-03-06T08:35:10.479Z,331.88
2018-03-06T08:36:10.447Z,326.25
2018-03-06T08:37:10.418Z,326.25
2018-03-06T08:38:10.416Z,320.63
2018-03-06T08:39:10.363Z,315.00
2018-03-06T08:40:10.333Z,315.00
2018-03-06T08:41:10.305Z,326.25
2018-03-06T08:42:10.275Z,326.25
2018-03-06T08:43:10.243Z,320.63
2018-03-06T08:44:10.213Z,326.25
2018-03-06T08:45:10.188Z,320.63
2018-03-06T08:46:10.163Z,326.25
2018-03-06T08:47:10.171Z,320.63
2018-03-06T08:48:10.124Z,331.88
2018-03-06T08:49:10.074Z,326.25
2018-03-06T08:50:10.045Z,326.25
2018-03-06T08:51:10.017Z,326.25
2018-03-06T08:52:09.992Z,331.88
2018-03-06T08:53:09.958Z,331.88
2018-03-06T08:54:09.945Z,337.50
2018-03-06T08:55:09.907Z,343.13
2018-03-06T08:56:09.877Z,343.13
2018-03-06T08:57:09.847Z,348.75
2018-03-06T08:58:09.814Z,343.13
2018-03-06T08:59:09.789Z,337.50
2018-03-06T09:00:09.756Z,343.13
2018-03-06T09:01:09.728Z,320.63
2018-03-06T09:02:09.702Z,315.00
2018-03-06T09:03:09.678Z,303.75
2018-03-06T09:04:09.645Z,298.13
2018-03-06T09:05:09.617Z,303.75
2018-03-06T09:06:09.603Z,309.38
2018-03-06T09:07:09.566Z,315.00
2018-03-06T09:08:09.537Z,326.25
2018-03-06T09:09:09.513Z,331.88
2018-03-06T09:10:09.479Z,331.88
2018-03-06T09:11:09.446Z,343.13
2018-03-06T09:12:09.460Z,343.13
2018-03-06T09:13:09.401Z,343.13
2018-03-06T09:14:09.367Z,343.13
2018-03-06T09:15:09.345Z,337.50
2018-03-06T09:16:09.319Z,331.88
2018-03-06T09:17:09.281Z,343.13
2018-03-06T09:18:09.257Z,348.75
2018-03-06T09:19:09.226Z,348.75
2018-03-06T09:20:09.241Z,348.75
2018-03-06T09:21:09.171Z,348.75
2018-03-06T09:22:09.142Z,348.75
2018-03-06T09:23:09.121Z,348.75
2018-03-06T09:24:09.080Z,343.13
2018-03-06T09:25:09.063Z,343.13
2018-03-06T09:26:09.024Z,343.13
2018-03-06T09:27:08.999Z,337.50
2018-03-06T09:28:08.967Z,343.13
2018-03-06T09:29:08.961Z,337.50
2018-03-06T09:30:08.921Z,337.50
2018-03-06T09:31:08.888Z,331.88
2018-03-06T09:32:08.860Z,337.50
2018-03-06T09:33:08.835Z,337.50
2018-03-06T09:34:08.871Z,331.88
2018-03-06T09:35:08.777Z,331.88
2018-03-06T09:36:08.753Z,331.88
2018-03-06T09:37:08.734Z,337.50
2018-03-06T09:38:08.690Z,337.50
2018-03-06T09:39:08.670Z,331.88
2018-03-06T09:40:08.649Z,348.75
2018-03-06T09:41:08.609Z,376.88
2018-03-06T09:42:08.585Z,388.13
2018-03-06T09:43:08.589Z,382.50
2018-03-06T09:44:08.520Z,343.13
2018-03-06T09:45:08.519Z,354.38
2018-03-06T09:46:08.482Z,382.50
2018-03-06T09:47:08.487Z,382.50
2018-03-06T09:48:08.416Z,382.50
2018-03-06T09:49:08.388Z,365.63
2018-03-06T09:50:08.362Z,382.50
2018-03-06T09:51:08.331Z,376.88
2018-03-06T09:52:08.319Z,382.50
2018-03-06T09:53:08.288Z,382.50
2018-03-06T09:54:08.242Z,376.88
2018-03-06T09:55:08.277Z,388.13
2018-03-06T09:56:08.186Z,393.75
2018-03-06T09:57:08.156Z,399.38
2018-03-06T09:58:08.134Z,399.38
2018-03-06T09:59:08.103Z,405.00
2018-03-06T10:00:08.076Z,421.88
2018-03-06T10:01:08.159Z,444.38
2018-03-06T10:02:08.024Z,461.25
2018-03-06T10:03:08.006Z,483.75
2018-03-06T10:04:07.979Z,517.50
2018-03-06T10:05:07.938Z,540.00
2018-03-06T10:06:07.950Z,545.63
2018-03-06T10:07:07.883Z,517.50
2018-03-06T10:08:07.903Z,523.13
2018-03-06T10:09:07.830Z,551.25
2018-03-06T10:10:07.797Z,562.50
2018-03-06T10:11:07.773Z,556.88
2018-03-06T10:12:07.745Z,534.38
2018-03-06T10:13:07.722Z,511.88
2018-03-06T10:14:07.694Z,500.63
2018-03-06T10:15:07.667Z,500.63
2018-03-06T10:16:07.640Z,517.50
2018-03-06T10:17:07.610Z,534.38
2018-03-06T10:18:07.589Z,534.38
2018-03-06T10:19:07.557Z,556.88
2018-03-06T10:20:07.526Z,562.50
2018-03-06T10:21:07.510Z,562.50
2018-03-06T10:22:07.472Z,556.88
2018-03-06T10:23:07.448Z,556.88
2018-03-06T10:24:07.422Z,545.63
2018-03-06T10:25:07.391Z,540.00
2018-03-06T10:26:07.373Z,540.00
2018-03-06T10:27:07.354Z,545.63
2018-03-06T10:28:07.352Z,551.25
2018-03-06T10:29:07.291Z,545.63
2018-03-06T10:30:07.270Z,551.25
2018-03-06T10:31:07.236Z,545.63
2018-03-06T10:32:07.222Z,551.25
2018-03-06T10:33:07.191Z,545.63
2018-03-06T10:34:07.153Z,523.13
2018-03-06T10:35:07.192Z,483.75
2018-03-06T10:36:07.100Z,528.75
2018-03-06T10:37:07.077Z,540.00
2018-03-06T10:38:07.051Z,573.75
2018-03-06T10:39:07.020Z,607.50
2018-03-06T10:40:06.997Z,607.50
2018-03-06T10:41:06.981Z,618.75
2018-03-06T10:42:06.953Z,624.38
2018-03-06T10:43:06.921Z,635.63
2018-03-06T10:44:06.896Z,652.50
2018-03-06T10:45:06.872Z,675.00
2018-03-06T10:46:06.840Z,686.25
2018-03-06T10:47:06.860Z,714.38
2018-03-06T10:48:06.801Z,742.50
2018-03-06T10:49:06.760Z,770.63
2018-03-06T10:50:06.746Z,793.13
2018-03-06T10:51:08.463Z,810.00
2018-03-06T10:52:06.680Z,821.25
2018-03-06T10:53:06.655Z,821.25
2018-03-06T10:54:06.627Z,826.88
2018-03-06T10:55:06.606Z,815.63
2018-03-06T10:56:06.575Z,832.50
2018-03-06T10:57:08.421Z,832.50
2018-03-06T10:58:06.531Z,843.75
2018-03-06T10:59:06.521Z,821.25
2018-03-06T11:00:09.428Z,821.25
2018-03-06T11:01:06.455Z,793.13
2018-03-06T11:02:06.420Z,849.38
2018-03-06T11:03:06.402Z,871.88
2018-03-06T11:04:06.376Z,860.63
2018-03-06T11:05:06.348Z,838.13
2018-03-06T11:06:06.315Z,883.13
2018-03-06T11:07:06.314Z,860.63
2018-03-06T11:08:06.299Z,843.75
2018-03-06T11:09:06.241Z,826.88
2018-03-06T11:10:06.222Z,804.38
2018-03-06T11:11:06.188Z,798.75
2018-03-06T11:12:06.176Z,787.50
2018-03-06T11:13:06.177Z,765.00
2018-03-06T11:14:06.124Z,765.00
2018-03-06T11:15:06.092Z,736.88
2018-03-06T11:16:06.075Z,770.63
2018-03-06T11:17:07.961Z,770.63
2018-03-06T11:18:06.017Z,765.00
2018-03-06T11:19:05.991Z,776.25
2018-03-06T11:20:05.962Z,776.25
2018-03-06T11:21:05.958Z,770.63
2018-03-06T11:22:05.919Z,770.63
2018-03-06T11:23:05.891Z,804.38
2018-03-06T11:24:05.886Z,815.63
2018-03-06T11:25:07.474Z,826.88
2018-03-06T11:26:07.438Z,826.88
2018-03-06T11:27:05.808Z,838.13
2018-03-06T11:28:05.770Z,838.13
2018-03-06T11:29:05.749Z,832.50
2018-03-06T11:30:05.735Z,821.25
2018-03-06T11:31:05.696Z,798.75
2018-03-06T11:32:05.671Z,804.38
2018-03-06T11:33:05.640Z,821.25
2018-03-06T11:34:05.620Z,832.50
2018-03-06T11:35:05.587Z,855.00
2018-03-06T11:36:08.431Z,877.50
2018-03-06T11:37:05.543Z,894.38
2018-03-06T11:38:05.523Z,832.50
2018-03-06T11:39:05.493Z,815.63
2018-03-06T11:40:08.470Z,821.25
2018-03-06T11:41:05.449Z,838.13
2018-03-06T11:42:05.428Z,849.38
2018-03-06T11:43:05.397Z,877.50
2018-03-06T11:44:05.369Z,860.63
2018-03-06T11:45:06.955Z,849.38
2018-03-06T11:46:05.320Z,843.75
2018-03-06T11:47:05.291Z,832.50
2018-03-06T11:48:05.268Z,866.25
2018-03-06T11:49:05.248Z,888.75
2018-03-06T11:50:05.232Z,883.13
2018-03-06T11:51:05.197Z,888.75
2018-03-06T11:52:05.413Z,933.75
2018-03-06T11:53:05.150Z,967.50
2018-03-06T11:54:05.126Z,950.63
2018-03-06T11:55:08.013Z,990.00
2018-03-06T11:56:05.099Z,973.13
2018-03-06T11:57:05.057Z,995.63
2018-03-06T11:58:05.056Z,990.00
2018-03-06T11:59:05.030Z,956.25
2018-03-06T12:00:05.022Z,984.38
2018-03-06T12:01:04.964Z,1001.25
2018-03-06T12:02:04.947Z,995.63
2018-03-06T12:03:06.210Z,1018.13
2018-03-06T12:04:04.931Z,1051.88
2018-03-06T12:05:04.886Z,1057.50
2018-03-06T12:06:04.845Z,995.63
2018-03-06T12:07:06.443Z,1074.38
2018-03-06T12:08:04.887Z,1102.50
2018-03-06T12:09:04.766Z,1080.00
2018-03-06T12:10:06.500Z,984.38
2018-03-06T12:11:04.734Z,1029.38
2018-03-06T12:12:04.719Z,1085.63
2018-03-06T12:13:04.690Z,995.63
2018-03-06T12:14:04.688Z,978.75
2018-03-06T12:15:04.644Z,995.63
2018-03-06T12:16:06.452Z,1108.13
2018-03-06T12:17:04.598Z,1136.25
2018-03-06T12:18:06.442Z,1158.75
2018-03-06T12:19:04.539Z,1125.00
2018-03-06T12:20:04.530Z,1153.13
2018-03-06T12:21:04.489Z,1181.25
2018-03-06T12:22:04.474Z,1243.13
2018-03-06T12:23:04.490Z,1243.13
2018-03-06T12:24:04.427Z,1215.00
2018-03-06T12:25:06.942Z,1254.38
2018-03-06T12:26:05.951Z,1344.38
2018-03-06T12:27:04.363Z,1423.13
2018-03-06T12:28:04.333Z,1378.13
2018-03-06T12:29:04.316Z,1479.38
2018-03-06T12:30:04.334Z,1608.75
2018-03-06T12:31:04.272Z,2373.75
2018-03-06T12:32:04.251Z,2233.13
2018-03-06T12:33:04.224Z,1811.25
2018-03-06T12:34:04.205Z,1788.75
2018-03-06T12:35:04.181Z,2441.25
2018-03-06T12:36:04.165Z,2424.38
2018-03-06T12:37:04.141Z,2542.50
2018-03-06T12:38:05.953Z,2137.50
2018-03-06T12:39:04.093Z,2221.88
2018-03-06T12:40:04.070Z,1923.75
2018-03-06T12:41:04.049Z,1878.75
2018-03-06T12:42:04.018Z,2266.88
2018-03-06T12:43:04.011Z,2790.00
2018-03-06T12:44:05.943Z,2143.13
2018-03-06T12:45:03.950Z,2053.13
2018-03-06T12:46:03.929Z,2115.00
2018-03-06T12:47:03.912Z,2115.00
2018-03-06T12:48:03.888Z,2250.00
2018-03-06T12:49:03.868Z,1597.50
2018-03-06T12:50:03.854Z,1676.25
2018-03-06T12:51:05.459Z,2154.38
2018-03-06T12:52:03.805Z,1693.13